Scottish Viking — IBDZ — position and weather

sailwx.info

Track history (hours):
 
Tides and Currents Weather Stations Pressure Air Temp Water Temp Dewpoint Dewpoint Depression Visibility Wind Speed Wind Dir Waves Ship Positions

Scottish Viking

Last reported at 2015-Mar-06 10:32 UTC. Time now 2015-Mar-06 11:12 UTC.
Position N 58°54' E 017°58'.

Length 186 m; draft 6.4 m.

Type: Ship. MMSI: 247265800.

Date/timePositionNaut miles runAvg speedWind from/ knotsBaromVisibWave heightAir tempDewpointWater temp
2015-Mar-06 10:32N 58°54' E 017°58'0 0.0
2015-Mar-06 09:32N 58°54' E 017°58'0 0.0
2015-Mar-06 08:32N 58°54' E 017°58'0 0.0
2015-Mar-06 07:34N 58°54' E 017°58'1 0.5
2015-Mar-06 06:33N 58°55' E 017°58'1010.1
2015-Mar-06 05:34N 58°46' E 018°08'1 0.0
2015-Mar-04 22:28N 58°47' E 018°06'9 9.0
2015-Mar-04 21:28N 58°54' E 017°58'0 0.0
2015-Mar-04 20:31N 58°54' E 017°58'0 0.0
2015-Mar-04 19:33N 58°54' E 017°58'0 0.0
2015-Mar-04 18:33N 58°54' E 017°58'0 0.5
2015-Mar-04 17:34N 58°55' E 017°58'12 0.5
2015-Mar-03 19:34N 58°45' E 018°10'1210.9
2015-Mar-03 18:29N 58°54' E 017°58'0 0.0
2015-Mar-03 17:29N 58°54' E 017°58'0 0.0
2015-Mar-03 16:32N 58°54' E 017°58'0 0.0
2015-Mar-03 15:32N 58°54' E 017°58'0 0.0
2015-Mar-03 14:32N 58°54' E 017°58'0 0.0
2015-Mar-03 13:32N 58°54' E 017°58'0 0.0
2015-Mar-03 12:32N 58°54' E 017°58'0 0.0
2015-Mar-03 11:32N 58°54' E 017°58'0 0.0
2015-Mar-03 10:32N 58°54' E 017°58'0 0.0
2015-Mar-03 09:32N 58°54' E 017°58'0 0.3
2015-Mar-03 08:33N 58°55' E 017°58'8 0.4
2015-Mar-02 10:33N 58°47' E 018°05'8 8.4
2015-Mar-02 09:33N 58°54' E 017°58'0 0.0
2015-Mar-02 08:34N 58°54' E 017°58'2 1.5
2015-Mar-02 07:34N 58°55' E 018°01'9 9.0
2015-Mar-02 06:33N 58°47' E 018°08'2 0.1
2015-Mar-01 08:27N 58°45' E 018°10'1113.0
2015-Mar-01 07:34N 58°55' E 017°59'1 1.0
2015-Mar-01 06:33N 58°54' E 017°58'0 0.0
2015-Mar-01 05:33N 58°54' E 017°58'0 0.5
2015-Mar-01 04:33N 58°55' E 017°58'10 9.7
2015-Mar-01 03:33N 58°46' E 018°07'2 0.1
2015-Feb-27 21:33N 58°47' E 018°05'8 8.1
2015-Feb-27 20:33N 58°54' E 017°58'0 0.0
2015-Feb-27 19:33N 58°54' E 017°58'0 0.0
2015-Feb-27 18:33N 58°54' E 017°58'0 0.0
2015-Feb-27 17:33N 58°54' E 017°58'0 0.0
2015-Feb-27 16:33N 58°54' E 017°58'0 0.0
2015-Feb-27 15:30N 58°54' E 017°58'0 0.0
2015-Feb-27 14:30N 58°54' E 017°58'0 0.0
2015-Feb-27 13:33N 58°54' E 017°58'0 0.0
2015-Feb-27 12:33N 58°54' E 017°58'0 0.0
2015-Feb-27 11:30N 58°54' E 017°58'0 0.0
2015-Feb-27 10:33N 58°54' E 017°58'0 0.0
2015-Feb-27 09:33N 58°54' E 017°58'0 0.0
2015-Feb-27 08:33N 58°54' E 017°58'0 0.0
2015-Feb-27 07:33N 58°54' E 017°58'0 0.5
2015-Feb-27 06:34N 58°55' E 017°58'1010.5
2015-Feb-27 05:33N 58°46' E 018°08'2 0.1
2015-Feb-25 22:29N 58°44' E 018°09'1313.6
2015-Feb-25 21:33N 58°55' E 017°59'1 0.9
2015-Feb-25 20:33N 58°54' E 017°58'0 0.0
2015-Feb-25 19:33N 58°54' E 017°58'0 0.0
2015-Feb-25 18:33N 58°54' E 017°58'0 0.5
2015-Feb-25 17:33N 58°55' E 017°58'6 0.3
2015-Feb-24 18:33N 58°49' E 018°02'6 5.9
2015-Feb-24 17:32N 58°54' E 017°58'0 0.0
2015-Feb-24 16:29N 58°54' E 017°58'0 0.0
2015-Feb-24 15:32N 58°54' E 017°58'0 0.0
2015-Feb-24 14:32N 58°54' E 017°58'0 0.0
2015-Feb-24 13:32N 58°54' E 017°58'0 0.0
2015-Feb-24 12:26N 58°54' E 017°58'0 0.0
2015-Feb-24 11:32N 58°54' E 017°58'0 0.0
2015-Feb-24 10:32N 58°54' E 017°58'  
Track history (hours):
 
Tides and Currents Weather Stations Pressure Air Temp Water Temp Dewpoint Dewpoint Depression Visibility Wind Speed Wind Dir Waves Ship Positions

Scottish Viking

Last reported at 2015-Mar-06 10:32 UTC. Time now 2015-Mar-06 11:12 UTC.
Position N 58°54' E 017°58'.

Length 186 m; draft 6.4 m.

Type: Ship. MMSI: 247265800.

Date/timePositionNaut miles runAvg speedWind from/ knotsBaromVisibWave heightAir tempDewpointWater temp
2015-Mar-06 10:32N 58°54' E 017°58'0 0.0
2015-Mar-06 09:32N 58°54' E 017°58'0 0.0
2015-Mar-06 08:32N 58°54' E 017°58'0 0.0
2015-Mar-06 07:34N 58°54' E 017°58'1 0.5
2015-Mar-06 06:33N 58°55' E 017°58'1010.1
2015-Mar-06 05:34N 58°46' E 018°08'1 0.0
2015-Mar-04 22:28N 58°47' E 018°06'9 9.0
2015-Mar-04 21:28N 58°54' E 017°58'0 0.0
2015-Mar-04 20:31N 58°54' E 017°58'0 0.0
2015-Mar-04 19:33N 58°54' E 017°58'0 0.0
2015-Mar-04 18:33N 58°54' E 017°58'0 0.5
2015-Mar-04 17:34N 58°55' E 017°58'12 0.5
2015-Mar-03 19:34N 58°45' E 018°10'1210.9
2015-Mar-03 18:29N 58°54' E 017°58'0 0.0
2015-Mar-03 17:29N 58°54' E 017°58'0 0.0
2015-Mar-03 16:32N 58°54' E 017°58'0 0.0
2015-Mar-03 15:32N 58°54' E 017°58'0 0.0
2015-Mar-03 14:32N 58°54' E 017°58'0 0.0
2015-Mar-03 13:32N 58°54' E 017°58'0 0.0
2015-Mar-03 12:32N 58°54' E 017°58'0 0.0
2015-Mar-03 11:32N 58°54' E 017°58'0 0.0
2015-Mar-03 10:32N 58°54' E 017°58'0 0.0
2015-Mar-03 09:32N 58°54' E 017°58'0 0.3
2015-Mar-03 08:33N 58°55' E 017°58'8 0.4
2015-Mar-02 10:33N 58°47' E 018°05'8 8.4
2015-Mar-02 09:33N 58°54' E 017°58'0 0.0
2015-Mar-02 08:34N 58°54' E 017°58'2 1.5
2015-Mar-02 07:34N 58°55' E 018°01'9 9.0
2015-Mar-02 06:33N 58°47' E 018°08'2 0.1
2015-Mar-01 08:27N 58°45' E 018°10'1113.0
2015-Mar-01 07:34N 58°55' E 017°59'1 1.0
2015-Mar-01 06:33N 58°54' E 017°58'0 0.0
2015-Mar-01 05:33N 58°54' E 017°58'0 0.5
2015-Mar-01 04:33N 58°55' E 017°58'10 9.7
2015-Mar-01 03:33N 58°46' E 018°07'2 0.1
2015-Feb-27 21:33N 58°47' E 018°05'8 8.1
2015-Feb-27 20:33N 58°54' E 017°58'0 0.0
2015-Feb-27 19:33N 58°54' E 017°58'0 0.0
2015-Feb-27 18:33N 58°54' E 017°58'0 0.0
2015-Feb-27 17:33N 58°54' E 017°58'0 0.0
2015-Feb-27 16:33N 58°54' E 017°58'0 0.0
2015-Feb-27 15:30N 58°54' E 017°58'0 0.0
2015-Feb-27 14:30N 58°54' E 017°58'0 0.0
2015-Feb-27 13:33N 58°54' E 017°58'0 0.0
2015-Feb-27 12:33N 58°54' E 017°58'0 0.0
2015-Feb-27 11:30N 58°54' E 017°58'0 0.0
2015-Feb-27 10:33N 58°54' E 017°58'0 0.0
2015-Feb-27 09:33N 58°54' E 017°58'0 0.0
2015-Feb-27 08:33N 58°54' E 017°58'0 0.0
2015-Feb-27 07:33N 58°54' E 017°58'0 0.5
2015-Feb-27 06:34N 58°55' E 017°58'1010.5
2015-Feb-27 05:33N 58°46' E 018°08'2 0.1
2015-Feb-25 22:29N 58°44' E 018°09'1313.6
2015-Feb-25 21:33N 58°55' E 017°59'1 0.9
2015-Feb-25 20:33N 58°54' E 017°58'0 0.0
2015-Feb-25 19:33N 58°54' E 017°58'0 0.0
2015-Feb-25 18:33N 58°54' E 017°58'0 0.5
2015-Feb-25 17:33N 58°55' E 017°58'6 0.3
2015-Feb-24 18:33N 58°49' E 018°02'6 5.9
2015-Feb-24 17:32N 58°54' E 017°58'0 0.0
2015-Feb-24 16:29N 58°54' E 017°58'0 0.0
2015-Feb-24 15:32N 58°54' E 017°58'0 0.0
2015-Feb-24 14:32N 58°54' E 017°58'0 0.0
2015-Feb-24 13:32N 58°54' E 017°58'0 0.0
2015-Feb-24 12:26N 58°54' E 017°58'0 0.0
2015-Feb-24 11:32N 58°54' E 017°58'0 0.0
2015-Feb-24 10:32N 58°54' E 017°58'  

Dump ship's entire track history